createdAt,value
2023-01-09T00:02:04.413Z,91.30
2023-01-09T00:04:31.169Z,91.30
2023-01-09T00:06:58.462Z,91.30
2023-01-09T00:09:25.172Z,91.30
2023-01-09T00:11:52.002Z,91.30
2023-01-09T00:14:18.985Z,91.20
2023-01-09T00:16:45.790Z,91.20
2023-01-09T00:19:12.534Z,91.20
2023-01-09T00:21:39.273Z,91.20
2023-01-09T00:24:06.339Z,91.20
2023-01-09T00:26:33.039Z,91.20
2023-01-09T00:29:00.276Z,91.20
2023-01-09T00:31:27.070Z,91.20
2023-01-09T00:34:00.311Z,91.20
2023-01-09T00:36:27.213Z,91.20
2023-01-09T00:38:53.907Z,91.30
2023-01-09T00:41:30.138Z,91.30
2023-01-09T00:43:59.294Z,91.20
2023-01-09T00:46:29.588Z,91.20
2023-01-09T00:48:56.627Z,91.30
2023-01-09T00:51:24.163Z,91.30
2023-01-09T00:53:50.978Z,91.30
2023-01-09T00:56:18.656Z,91.40
2023-01-09T00:58:45.362Z,91.40
2023-01-09T01:01:12.327Z,91.40
2023-01-09T01:03:39.356Z,91.40
2023-01-09T01:06:24.611Z,91.40
2023-01-09T01:08:51.393Z,91.50
2023-01-09T01:11:18.136Z,91.50
2023-01-09T01:13:44.830Z,91.50
2023-01-09T01:16:12.268Z,91.50
2023-01-09T01:18:39.260Z,91.40
2023-01-09T01:21:07.879Z,91.50
2023-01-09T01:23:34.760Z,91.40
2023-01-09T01:26:09.060Z,91.40
2023-01-09T01:28:35.843Z,91.40
2023-01-09T01:31:02.942Z,91.40
2023-01-09T01:33:29.991Z,91.50
2023-01-09T01:36:17.450Z,91.40
2023-01-09T01:38:44.281Z,91.40
2023-01-09T01:41:10.996Z,91.50
2023-01-09T01:43:54.384Z,91.40
2023-01-09T01:46:21.233Z,91.40
2023-01-09T01:48:49.462Z,91.50
2023-01-09T01:51:16.996Z,91.50
2023-01-09T01:53:46.131Z,91.50
2023-01-09T01:56:22.655Z,91.50
2023-01-09T01:58:58.750Z,91.50
2023-01-09T02:01:25.564Z,91.50
2023-01-09T02:03:53.211Z,91.40
2023-01-09T02:06:20.026Z,91.40
2023-01-09T02:08:46.857Z,91.50
2023-01-09T02:11:14.464Z,91.40
2023-01-09T02:13:41.225Z,91.40
2023-01-09T02:16:30.701Z,91.20
2023-01-09T02:19:14.707Z,91.20
2023-01-09T02:22:10.946Z,91.10
2023-01-09T02:24:53.971Z,91.10
2023-01-09T02:27:51.329Z,91.10
2023-01-09T02:30:40.488Z,91.10
2023-01-09T02:33:39.996Z,91.10
2023-01-09T02:36:31.175Z,91.10
2023-01-09T02:39:17.038Z,91.10
2023-01-09T02:41:58.552Z,91.10
2023-01-09T02:44:29.773Z,91.10
2023-01-09T02:47:06.956Z,91.10
2023-01-09T02:49:38.344Z,91.20
2023-01-09T02:52:23.747Z,91.10
2023-01-09T02:55:05.550Z,91.10
2023-01-09T02:57:41.564Z,91.10
2023-01-09T03:00:17.270Z,91.10
2023-01-09T03:02:52.616Z,91.10
2023-01-09T03:05:26.746Z,91.10
2023-01-09T03:08:03.225Z,91.10
2023-01-09T03:11:07.935Z,91.20
2023-01-09T03:13:54.159Z,91.10
2023-01-09T03:16:32.446Z,91.10
2023-01-09T03:18:59.207Z,91.10
2023-01-09T03:21:26.033Z,91.10
2023-01-09T03:23:57.528Z,91.10
2023-01-09T03:26:24.435Z,91.00
2023-01-09T03:28:51.222Z,91.00
2023-01-09T03:31:18.005Z,91.00
2023-01-09T03:33:44.788Z,90.90
2023-01-09T03:36:11.968Z,91.00
2023-01-09T03:38:38.731Z,91.10
2023-01-09T03:41:05.686Z,91.10
2023-01-09T03:43:32.450Z,91.20
2023-01-09T03:45:59.343Z,91.10
2023-01-09T03:48:26.144Z,91.20
2023-01-09T03:50:53.250Z,91.10
2023-01-09T03:53:20.295Z,91.10
2023-01-09T03:55:47.651Z,91.10
2023-01-09T03:58:15.037Z,91.10
2023-01-09T04:00:42.411Z,91.10
2023-01-09T04:03:09.325Z,91.00
2023-01-09T04:05:36.054Z,90.90
2023-01-09T04:08:02.739Z,90.90
2023-01-09T04:10:29.418Z,90.80
2023-01-09T04:12:56.083Z,90.70
2023-01-09T04:15:23.178Z,90.50
2023-01-09T04:17:49.914Z,90.60
2023-01-09T04:20:16.913Z,90.50
2023-01-09T04:22:43.745Z,90.60
2023-01-09T04:25:10.425Z,90.50
2023-01-09T04:27:37.204Z,90.40
2023-01-09T04:30:04.503Z,90.50
2023-01-09T04:32:31.263Z,90.40
2023-01-09T04:34:58.040Z,90.40
2023-01-09T04:37:24.738Z,90.50
2023-01-09T04:39:53.294Z,90.40
2023-01-09T04:42:19.971Z,90.40
2023-01-09T04:44:46.632Z,90.30
2023-01-09T04:47:14.958Z,90.30
2023-01-09T04:49:41.667Z,90.30
2023-01-09T04:52:08.351Z,90.30
2023-01-09T04:54:35.102Z,90.30
2023-01-09T04:57:01.846Z,90.30
2023-01-09T04:59:28.536Z,90.30
2023-01-09T05:01:56.321Z,90.20
2023-01-09T05:04:23.114Z,90.20
2023-01-09T05:06:49.917Z,90.20
2023-01-09T05:09:16.579Z,90.20
2023-01-09T05:11:43.247Z,90.20
2023-01-09T05:14:10.084Z,90.20
2023-01-09T05:16:36.771Z,90.20
2023-01-09T05:19:03.608Z,90.30
2023-01-09T05:21:30.368Z,90.20
2023-01-09T05:23:57.126Z,90.20
2023-01-09T05:26:24.120Z,90.20
2023-01-09T05:28:51.708Z,90.20
2023-01-09T05:31:18.943Z,90.20
2023-01-09T05:33:46.071Z,90.50
2023-01-09T05:36:12.767Z,90.20
2023-01-09T05:38:39.540Z,90.20
2023-01-09T05:41:06.369Z,90.20
2023-01-09T05:43:33.336Z,90.20
2023-01-09T05:46:00.033Z,90.20
2023-01-09T05:48:26.743Z,90.20
2023-01-09T05:50:53.447Z,90.10
2023-01-09T05:53:20.132Z,90.10
2023-01-09T05:55:47.178Z,90.10
2023-01-09T05:58:13.849Z,90.10
2023-01-09T06:00:40.503Z,90.10
2023-01-09T06:03:07.185Z,90.10
2023-01-09T06:05:33.930Z,90.00
2023-01-09T06:08:00.669Z,90.10
2023-01-09T06:10:27.421Z,90.00
2023-01-09T06:12:54.690Z,90.00
2023-01-09T06:15:21.442Z,90.10
2023-01-09T06:17:48.464Z,90.00
2023-01-09T06:20:15.150Z,90.00
2023-01-09T06:22:41.866Z,90.00
2023-01-09T06:25:09.085Z,90.10
2023-01-09T06:27:35.764Z,90.10
2023-01-09T06:30:02.457Z,90.10
2023-01-09T06:32:29.218Z,90.10
2023-01-09T06:34:55.875Z,90.20
2023-01-09T06:37:22.552Z,90.20
2023-01-09T06:39:49.593Z,90.20
2023-01-09T06:42:16.457Z,90.20
2023-01-09T06:44:43.316Z,90.20
2023-01-09T06:47:10.102Z,90.20
2023-01-09T06:49:36.840Z,90.20
2023-01-09T06:52:05.729Z,90.20
2023-01-09T06:54:32.533Z,90.10
2023-01-09T06:56:59.271Z,90.10
2023-01-09T06:59:25.964Z,90.10
2023-01-09T07:01:52.753Z,90.10
2023-01-09T07:04:22.174Z,90.00
2023-01-09T07:06:49.339Z,90.00
2023-01-09T07:09:16.068Z,90.00
2023-01-09T07:11:42.844Z,89.80
2023-01-09T07:14:09.558Z,89.30
2023-01-09T07:16:36.391Z,89.70
2023-01-09T07:19:03.077Z,89.60
2023-01-09T07:21:32.602Z,89.60
2023-01-09T07:23:59.453Z,89.60
2023-01-09T07:26:26.181Z,89.60
2023-01-09T07:28:54.680Z,89.60
2023-01-09T07:31:21.950Z,89.60
2023-01-09T07:33:49.454Z,89.50
2023-01-09T07:36:16.246Z,89.90
2023-01-09T07:38:42.952Z,90.00
2023-01-09T07:41:09.740Z,90.00
2023-01-09T07:43:37.704Z,90.10
2023-01-09T07:46:04.749Z,90.10
2023-01-09T07:48:31.456Z,90.00
2023-01-09T07:50:58.290Z,89.90
2023-01-09T07:53:25.201Z,89.90
2023-01-09T07:55:53.204Z,90.00
2023-01-09T07:58:19.873Z,89.80
2023-01-09T08:00:46.603Z,90.10
2023-01-09T08:03:13.331Z,90.10
2023-01-09T08:05:40.012Z,90.20
2023-01-09T08:08:07.172Z,90.20
2023-01-09T08:10:33.847Z,90.20
2023-01-09T08:13:00.655Z,90.20
2023-01-09T08:15:27.400Z,90.30
2023-01-09T08:17:55.060Z,90.30
2023-01-09T08:20:22.082Z,90.30
2023-01-09T08:22:54.380Z,90.20
2023-01-09T08:25:21.481Z,90.20
2023-01-09T08:27:48.874Z,90.60
2023-01-09T08:30:16.870Z,90.20
2023-01-09T08:32:43.697Z,90.30
2023-01-09T08:35:10.535Z,90.30
2023-01-09T08:37:37.331Z,90.30
2023-01-09T08:40:04.410Z,90.30
2023-01-09T08:42:49.695Z,90.30
2023-01-09T08:45:34.961Z,90.40
2023-01-09T08:48:01.730Z,90.50
2023-01-09T08:50:28.404Z,90.50
2023-01-09T08:52:55.090Z,90.50
2023-01-09T08:55:22.346Z,90.50
2023-01-09T08:57:54.316Z,90.50
2023-01-09T09:00:24.986Z,90.50
2023-01-09T09:02:57.262Z,90.50
2023-01-09T09:05:25.328Z,90.60
2023-01-09T09:07:53.943Z,90.30
2023-01-09T09:10:20.980Z,90.40
2023-01-09T09:12:52.575Z,90.50
2023-01-09T09:15:26.682Z,90.50
2023-01-09T09:17:55.890Z,90.50
2023-01-09T09:20:28.249Z,90.40
2023-01-09T09:22:55.377Z,90.30
2023-01-09T09:25:24.201Z,90.30
2023-01-09T09:27:51.541Z,90.40
2023-01-09T09:30:19.281Z,90.50
2023-01-09T09:32:46.845Z,90.70
2023-01-09T09:35:14.069Z,90.90
2023-01-09T09:37:42.106Z,90.90
2023-01-09T09:40:18.746Z,90.90
2023-01-09T09:43:42.603Z,91.00
2023-01-09T09:46:13.237Z,90.90
2023-01-09T09:48:46.021Z,90.80
2023-01-09T09:51:26.882Z,91.00
2023-01-09T09:53:59.926Z,91.00
2023-01-09T09:56:27.344Z,91.10
2023-01-09T09:58:57.139Z,90.90
2023-01-09T10:01:28.760Z,91.00
2023-01-09T10:04:00.223Z,90.90
2023-01-09T10:06:33.055Z,90.80
2023-01-09T10:09:02.978Z,90.60
2023-01-09T10:11:56.890Z,90.50
2023-01-09T10:14:25.547Z,90.40
2023-01-09T10:17:19.523Z,90.40
2023-01-09T10:20:24.635Z,90.30
2023-01-09T10:23:13.507Z,90.20
2023-01-09T10:25:44.961Z,90.50
2023-01-09T10:28:11.731Z,90.20
2023-01-09T10:30:44.102Z,90.30
2023-01-09T10:33:45.751Z,90.20
2023-01-09T10:36:34.642Z,90.10
2023-01-09T10:39:04.331Z,90.10
2023-01-09T10:41:30.987Z,89.60
2023-01-09T10:44:03.859Z,89.50
2023-01-09T10:46:42.040Z,89.30
2023-01-09T10:49:13.047Z,89.60
2023-01-09T10:52:14.826Z,89.00
2023-01-09T10:54:53.624Z,89.00
2023-01-09T10:57:42.799Z,89.30
2023-01-09T11:00:24.177Z,89.00
2023-01-09T11:02:52.078Z,89.60
2023-01-09T11:05:31.162Z,89.40
2023-01-09T11:08:04.968Z,89.30
2023-01-09T11:10:51.537Z,90.00
2023-01-09T11:13:26.605Z,90.00
2023-01-09T11:16:09.220Z,89.80
2023-01-09T11:18:39.041Z,89.30
2023-01-09T11:21:32.039Z,89.30
2023-01-09T11:24:21.282Z,89.30
2023-01-09T11:26:48.638Z,89.40
2023-01-09T11:29:25.221Z,89.40
2023-01-09T11:31:54.682Z,89.10
2023-01-09T11:34:24.041Z,89.00
2023-01-09T11:36:51.949Z,89.30
2023-01-09T11:39:26.287Z,90.10
2023-01-09T11:41:57.279Z,88.90
2023-01-09T11:44:25.832Z,88.70
2023-01-09T11:46:54.089Z,88.70
2023-01-09T11:49:28.923Z,88.90
2023-01-09T11:52:19.627Z,89.60
2023-01-09T11:55:03.111Z,89.20
2023-01-09T11:57:30.301Z,88.70
2023-01-09T11:59:59.560Z,89.20
2023-01-09T12:03:17.747Z,89.40
2023-01-09T12:05:50.600Z,88.90
2023-01-09T12:08:56.246Z,88.90
2023-01-09T12:11:33.263Z,88.70
2023-01-09T12:13:59.918Z,88.40
2023-01-09T12:16:39.942Z,89.20
2023-01-09T12:19:27.182Z,89.10
2023-01-09T12:22:06.608Z,88.90
2023-01-09T12:24:58.117Z,89.20
2023-01-09T12:27:26.672Z,89.40
2023-01-09T12:30:02.798Z,90.10
2023-01-09T12:32:48.372Z,90.00
2023-01-09T12:35:37.605Z,90.10
2023-01-09T12:38:23.889Z,90.20
2023-01-09T12:41:09.362Z,90.20
2023-01-09T12:44:03.798Z,90.80
2023-01-09T12:46:38.552Z,90.70
2023-01-09T12:49:14.136Z,90.50
2023-01-09T12:52:17.393Z,90.40
2023-01-09T12:54:55.754Z,90.20
2023-01-09T12:57:38.959Z,90.40
2023-01-09T13:00:15.073Z,90.10
2023-01-09T13:02:44.605Z,90.00
2023-01-09T13:05:20.249Z,90.80
2023-01-09T13:07:49.614Z,90.00
2023-01-09T13:10:27.079Z,89.40
2023-01-09T13:12:54.685Z,87.80
2023-01-09T13:15:43.022Z,88.90
2023-01-09T13:18:14.054Z,88.20
2023-01-09T13:20:52.946Z,88.20
2023-01-09T13:23:23.153Z,87.60
2023-01-09T13:25:54.830Z,87.70
2023-01-09T13:28:26.490Z,87.60
2023-01-09T13:31:15.996Z,87.30
2023-01-09T13:33:49.743Z,86.70
2023-01-09T13:36:28.226Z,86.30
2023-01-09T13:38:58.082Z,86.90
2023-01-09T13:41:45.606Z,86.40
2023-01-09T13:44:18.543Z,86.60
2023-01-09T13:46:46.403Z,85.60
2023-01-09T13:49:43.931Z,85.30
2023-01-09T13:52:28.631Z,85.20
2023-01-09T13:54:55.341Z,85.10
2023-01-09T13:57:25.376Z,84.70
2023-01-09T13:59:52.156Z,84.80
2023-01-09T14:02:34.888Z,84.70
2023-01-09T14:05:11.369Z,84.70
2023-01-09T14:07:49.211Z,84.50
2023-01-09T14:10:28.258Z,83.20
2023-01-09T14:12:55.974Z,82.20
2023-01-09T14:15:31.923Z,80.60
2023-01-09T14:18:15.734Z,78.90
2023-01-09T14:20:48.496Z,77.10
2023-01-09T14:23:50.349Z,76.50
2023-01-09T14:26:23.677Z,73.90
2023-01-09T14:28:50.355Z,73.00
2023-01-09T14:31:34.858Z,72.10
2023-01-09T14:34:35.730Z,70.80
2023-01-09T14:37:02.996Z,71.80
2023-01-09T14:39:31.470Z,72.00
2023-01-09T14:42:06.711Z,72.60
2023-01-09T14:44:51.286Z,72.10
2023-01-09T14:47:39.867Z,69.90
2023-01-09T14:50:08.509Z,70.70
2023-01-09T14:52:48.059Z,69.90
2023-01-09T14:55:20.471Z,70.20
2023-01-09T14:57:52.138Z,69.00
2023-01-09T15:00:19.547Z,69.40
2023-01-09T15:02:46.217Z,68.40
2023-01-09T15:05:16.029Z,68.60
2023-01-09T15:08:00.080Z,67.90
2023-01-09T15:10:31.514Z,68.70
2023-01-09T15:13:00.653Z,67.70
2023-01-09T15:15:29.002Z,68.00
2023-01-09T15:18:06.799Z,67.40
2023-01-09T15:20:34.288Z,67.60
2023-01-09T15:23:01.315Z,67.40
2023-01-09T15:25:44.911Z,67.40
2023-01-09T15:28:32.205Z,67.80
2023-01-09T15:31:07.331Z,66.90
2023-01-09T15:33:34.113Z,67.30
2023-01-09T15:36:02.409Z,66.90
2023-01-09T15:38:31.265Z,66.90
2023-01-09T15:41:01.303Z,67.00
2023-01-09T15:43:30.294Z,67.20
2023-01-09T15:45:57.655Z,66.40
2023-01-09T15:48:35.179Z,67.50
2023-01-09T15:51:18.301Z,67.40
2023-01-09T15:53:46.937Z,66.90
2023-01-09T15:56:33.366Z,67.40
2023-01-09T15:59:00.769Z,67.50
2023-01-09T16:01:39.839Z,67.60
2023-01-09T16:04:13.072Z,67.90
2023-01-09T16:06:45.563Z,68.00
2023-01-09T16:09:16.867Z,68.00
2023-01-09T16:11:46.848Z,69.20
2023-01-09T16:14:14.552Z,68.70
2023-01-09T16:16:41.504Z,68.20
2023-01-09T16:19:28.513Z,67.70
2023-01-09T16:21:59.474Z,67.60
2023-01-09T16:24:27.996Z,68.10
2023-01-09T16:27:13.638Z,68.50
2023-01-09T16:29:45.679Z,68.60
2023-01-09T16:32:21.384Z,68.60
2023-01-09T16:34:57.274Z,68.60
2023-01-09T16:37:24.632Z,68.60
2023-01-09T16:40:21.985Z,68.60
2023-01-09T16:43:03.446Z,68.60
2023-01-09T16:45:37.193Z,68.90
2023-01-09T16:48:19.118Z,68.70
2023-01-09T16:50:46.195Z,68.40
2023-01-09T16:53:17.376Z,68.60
2023-01-09T16:55:45.054Z,68.80
2023-01-09T16:58:21.250Z,68.70
2023-01-09T17:00:48.173Z,68.60
2023-01-09T17:03:15.193Z,68.60
2023-01-09T17:05:42.011Z,68.70
2023-01-09T17:08:22.755Z,68.70
2023-01-09T17:10:53.288Z,68.90
2023-01-09T17:13:20.019Z,69.10
2023-01-09T17:15:46.951Z,69.00
2023-01-09T17:18:18.305Z,69.00
2023-01-09T17:20:46.715Z,69.30
2023-01-09T17:23:13.778Z,69.50
2023-01-09T17:25:59.365Z,69.60
2023-01-09T17:28:36.053Z,69.50
2023-01-09T17:31:09.237Z,69.50
2023-01-09T17:33:36.114Z,69.60
2023-01-09T17:36:03.311Z,69.60
2023-01-09T17:38:30.082Z,69.30
2023-01-09T17:40:56.749Z,69.50
2023-01-09T17:43:23.584Z,69.40
2023-01-09T17:45:50.623Z,69.50
2023-01-09T17:48:19.008Z,69.50
2023-01-09T17:50:46.183Z,68.30
2023-01-09T17:53:13.214Z,69.30
2023-01-09T17:55:40.937Z,68.10
2023-01-09T17:58:10.031Z,69.60
2023-01-09T18:00:37.457Z,70.50
2023-01-09T18:03:05.500Z,70.90
2023-01-09T18:05:34.160Z,70.90
2023-01-09T18:08:01.239Z,71.30
2023-01-09T18:10:28.548Z,71.30
2023-01-09T18:12:55.729Z,71.60
2023-01-09T18:15:24.375Z,71.50
2023-01-09T18:17:51.870Z,71.80
2023-01-09T18:20:18.903Z,72.20
2023-01-09T18:22:45.638Z,73.10
2023-01-09T18:25:12.369Z,72.90
2023-01-09T18:27:39.119Z,72.80
2023-01-09T18:30:07.717Z,72.40
2023-01-09T18:32:35.148Z,73.70
2023-01-09T18:35:02.154Z,73.30
2023-01-09T18:37:28.894Z,74.30
2023-01-09T18:39:55.679Z,73.60
2023-01-09T18:42:22.447Z,74.80
2023-01-09T18:44:59.069Z,76.60
2023-01-09T18:47:25.955Z,75.60
2023-01-09T18:49:52.853Z,76.50
2023-01-09T18:52:19.511Z,76.70
2023-01-09T18:54:46.248Z,77.30
2023-01-09T18:57:12.905Z,77.40
2023-01-09T18:59:39.557Z,77.80
2023-01-09T19:02:08.121Z,77.80
2023-01-09T19:04:34.794Z,77.80
2023-01-09T19:07:01.504Z,77.90
2023-01-09T19:09:28.223Z,77.40
2023-01-09T19:11:54.879Z,77.00
2023-01-09T19:14:21.656Z,77.40
2023-01-09T19:16:48.614Z,77.10
2023-01-09T19:19:15.412Z,78.40
2023-01-09T19:21:44.085Z,77.60
2023-01-09T19:24:10.974Z,77.40
2023-01-09T19:26:39.284Z,77.10
2023-01-09T19:29:05.954Z,77.00
2023-01-09T19:31:34.085Z,76.90
2023-01-09T19:34:00.988Z,78.20
2023-01-09T19:36:27.974Z,78.20
2023-01-09T19:39:01.580Z,78.40
2023-01-09T19:41:28.532Z,79.30
2023-01-09T19:43:55.199Z,79.50
2023-01-09T19:46:23.081Z,79.30
2023-01-09T19:48:50.259Z,79.90
2023-01-09T19:51:20.705Z,79.80
2023-01-09T19:53:55.419Z,79.80
2023-01-09T19:56:23.357Z,81.60
2023-01-09T19:58:51.948Z,81.10
2023-01-09T20:01:20.576Z,80.70
2023-01-09T20:03:47.965Z,80.50
2023-01-09T20:06:18.780Z,80.20
2023-01-09T20:08:48.837Z,79.80
2023-01-09T20:11:15.716Z,80.10
2023-01-09T20:13:42.634Z,80.60
2023-01-09T20:16:14.410Z,80.90
2023-01-09T20:18:41.186Z,80.40
2023-01-09T20:21:09.612Z,79.90
2023-01-09T20:23:38.456Z,80.30
2023-01-09T20:26:05.319Z,80.00
2023-01-09T20:28:32.063Z,80.20
2023-01-09T20:30:59.338Z,80.40
2023-01-09T20:33:26.083Z,80.30
2023-01-09T20:35:52.760Z,80.30
2023-01-09T20:38:19.479Z,80.30
2023-01-09T20:40:46.246Z,80.50
2023-01-09T20:43:13.049Z,80.60
2023-01-09T20:45:40.692Z,80.80
2023-01-09T20:48:08.849Z,83.30
2023-01-09T20:50:35.558Z,81.90
2023-01-09T20:53:03.299Z,84.30
2023-01-09T20:55:30.167Z,83.10
2023-01-09T20:57:56.848Z,82.80
2023-01-09T21:00:27.380Z,82.70
2023-01-09T21:02:54.394Z,82.40
2023-01-09T21:05:21.082Z,82.30
2023-01-09T21:07:48.044Z,81.90
2023-01-09T21:10:14.831Z,81.00
2023-01-09T21:12:41.884Z,81.40
2023-01-09T21:15:10.333Z,81.50
2023-01-09T21:17:38.310Z,81.30
2023-01-09T21:20:11.749Z,81.40
2023-01-09T21:22:39.875Z,81.20
2023-01-09T21:25:07.739Z,80.30
2023-01-09T21:27:40.145Z,80.30
2023-01-09T21:30:08.490Z,81.20
2023-01-09T21:32:36.025Z,81.10
2023-01-09T21:35:06.094Z,80.90
2023-01-09T21:37:34.465Z,80.60
2023-01-09T21:40:01.506Z,80.90
2023-01-09T21:42:46.933Z,80.70
2023-01-09T21:45:33.066Z,80.80
2023-01-09T21:48:02.123Z,79.60
2023-01-09T21:50:28.872Z,79.70
2023-01-09T21:52:55.598Z,80.40
2023-01-09T21:55:22.248Z,80.50
2023-01-09T21:57:48.898Z,78.60
2023-01-09T22:00:16.149Z,78.40
2023-01-09T22:02:42.922Z,78.30
2023-01-09T22:05:10.413Z,78.20
2023-01-09T22:07:37.558Z,79.00
2023-01-09T22:10:04.967Z,79.30
2023-01-09T22:12:31.961Z,79.40
2023-01-09T22:14:58.942Z,79.50
2023-01-09T22:17:25.633Z,79.70
2023-01-09T22:19:52.312Z,79.90
2023-01-09T22:22:19.301Z,80.10
2023-01-09T22:24:46.314Z,80.00
2023-01-09T22:27:13.832Z,80.20
2023-01-09T22:29:41.752Z,80.10
2023-01-09T22:32:08.732Z,80.40
2023-01-09T22:34:35.721Z,80.40
2023-01-09T22:37:02.951Z,80.50
2023-01-09T22:39:29.663Z,80.70
2023-01-09T22:41:56.396Z,80.80
2023-01-09T22:44:23.120Z,80.70
2023-01-09T22:46:49.888Z,80.90
2023-01-09T22:49:16.689Z,80.90
2023-01-09T22:51:44.572Z,81.00
2023-01-09T22:54:11.281Z,80.90
2023-01-09T22:56:38.086Z,81.00
2023-01-09T22:59:04.819Z,81.10
2023-01-09T23:01:31.592Z,81.10
2023-01-09T23:03:58.351Z,81.00
2023-01-09T23:06:25.388Z,81.10
2023-01-09T23:08:52.797Z,81.00
2023-01-09T23:11:44.507Z,81.70
2023-01-09T23:14:11.592Z,80.90
2023-01-09T23:16:38.360Z,80.80
2023-01-09T23:19:09.789Z,80.90
2023-01-09T23:21:36.989Z,80.70
2023-01-09T23:24:04.056Z,81.60
2023-01-09T23:26:30.753Z,80.70
2023-01-09T23:28:57.475Z,80.70
2023-01-09T23:31:24.274Z,80.70
2023-01-09T23:33:51.017Z,80.50
2023-01-09T23:36:17.698Z,80.40
2023-01-09T23:38:45.286Z,80.40
2023-01-09T23:41:12.020Z,80.40
2023-01-09T23:43:38.702Z,80.30
2023-01-09T23:46:05.546Z,80.30
2023-01-09T23:48:32.252Z,80.20
2023-01-09T23:50:58.944Z,81.00
2023-01-09T23:53:25.643Z,80.10
2023-01-09T23:55:54.520Z,80.30
2023-01-09T23:58:21.615Z,80.40
